Home > Products > Valid Products > TAF

000
FTUS43 KMPX 260500
TAFMSP
TAF
KMSP 260520Z 2606/2712 30004KT P6SM SKC
     FM260700 VRB02KT P6SM SKC
     FM261100 12005KT P6SM FEW200
     FM261800 14013KT P6SM SCT090 BKN200
     FM270200 13008KT P6SM OVC100=



000
FTUS43 KMPX 260500
TAFAXN
TAF
KAXN 260520Z 2606/2706 13002KT P6SM SKC
     FM261200 13008KT P6SM SKC
     FM261700 14018G24KT P6SM FEW200
     FM270000 14004KT P6SM BKN200=



000
FTUS43 KMPX 260500
TAFEAU
TAF
KEAU 260520Z 2606/2706 28005KT P6SM SKC
     FM260700 VRB02KT P6SM SKC
     FM261400 12004KT P6SM FEW200
     FM261800 14010KT P6SM BKN090 BKN200=



000
FTUS43 KMPX 260500
TAFSTC
TAF
KSTC 260520Z 2606/2706 VRB02KT P6SM SKC
     FM261300 12005KT P6SM SKC
     FM261700 14014KT P6SM FEW200
     FM262300 14009KT P6SM SCT050 BKN100=



000
FTUS43 KMPX 260500
TAFRWF
TAF
KRWF 260520Z 2606/2706 13002KT P6SM SKC
     FM261200 13008KT P6SM SKC
     FM261700 14018G24KT P6SM FEW200
     FM270000 14004KT P6SM BKN200=



000
FTUS43 KMPX 260300 AAA
TAFMSP
TAF AMD
KMSP 260322Z 2603/2706 30005KT P6SM SKC
     FM260700 VRB02KT P6SM SKC
     FM261100 12006KT P6SM FEW200
     FM261700 14013KT P6SM SCT090 BKN200=



000
FTUS43 KMPX 252300
TAFSTC
TAF
KSTC 252320Z 2600/2624 31009KT P6SM SKC
     FM260600 VRB02KT P6SM SKC
     FM261500 13013KT P6SM FEW100 SCT200
     FM262300 14009KT P6SM SCT100 SCT200=



000
FTUS43 KMPX 252300
TAFAXN
TAF
KAXN 252320Z 2600/2624 32007KT P6SM SKC
     FM260600 13004KT P6SM SKC
     FM261500 14018G24KT P6SM FEW200
     FM262300 14004KT P6SM SCT200=



000
FTUS43 KMPX 252300
TAFEAU
TAF
KEAU 252320Z 2600/2624 29008KT P6SM SKC
     FM260700 VRB02KT P6SM SKC
     FM261300 12004KT P6SM FEW200
     FM261800 14010KT P6SM BKN090 BKN200=



000
FTUS43 KMPX 252300
TAFRWF
TAF
KRWF 252320Z 2600/2624 32006KT P6SM SKC
     FM260600 13004KT P6SM SKC
     FM261500 14018G24KT P6SM FEW200
     FM262300 15004KT P6SM SCT200=



000
FTUS43 KMPX 252300
TAFMSP
TAF
KMSP 252320Z 2600/2706 30008KT P6SM SKC
     FM260700 VRB02KT P6SM SKC
     FM261100 12006KT P6SM FEW200
     FM261700 14013KT P6SM SCT090 BKN200=



000
FTUS43 KMPX 252100 AAA
TAFMSP
TAF AMD
KMSP 252123Z 2521/2624 30015G23KT P6SM SKC
     FM252330 32006KT P6SM SKC
     FM261200 12006KT P6SM SCT250
     FM262000 13013KT P6SM BKN080=



000
FTUS43 KMPX 251700
TAFRWF
TAF
KRWF 251721Z 2518/2618 34009KT P6SM SKC
     FM260100 VRB03KT P6SM SKC
     FM261000 14006KT P6SM SKC
     FM261500 15016G23KT P6SM SCT100=



000
FTUS43 KMPX 251700
TAFMSP
TAF
KMSP 251721Z 2518/2624 30014G22KT P6SM SCT110
     FM252330 32006KT P6SM SKC
     FM261200 12006KT P6SM SCT250
     FM262000 13013KT P6SM BKN080=



000
FTUS43 KMPX 251700
TAFEAU
TAF
KEAU 251721Z 2518/2618 29015G22KT P6SM SKC
     FM260000 29006KT P6SM SKC
     FM260600 VRB02KT P6SM SKC
     FM261600 15005KT P6SM SKC=



000
FTUS43 KMPX 251700
TAFAXN
TAF
KAXN 251721Z 2518/2618 31012G19KT P6SM SKC
     FM252300 32005KT P6SM SKC
     FM260900 13004KT P6SM SKC
     FM261500 14015G21KT P6SM SKC=



000
FTUS43 KMPX 251700
TAFSTC
TAF
KSTC 251721Z 2518/2618 30014G20KT P6SM SKC
     FM252300 31006KT P6SM SKC
     FM260600 VRB03KT P6SM SKC
     FM261400 13009KT P6SM SKC=



000
FTUS43 KMPX 251500 AAA
TAFMSP
TAF AMD
KMSP 251504Z 2515/2618 30012KT P6SM SCT110
     FM251700 30014G22KT P6SM SCT110
     FM252330 30006KT P6SM SKC
     FM261400 11006KT P6SM SCT250=



000
FTUS43 KMPX 251100
TAFRWF
TAF
KRWF 251131Z 2512/2612 31010KT P6SM SKC
     FM252300 33006KT P6SM SKC
     FM260100 12006KT P6SM SCT250=



000
FTUS43 KMPX 251100
TAFMSP
TAF
KMSP 251131Z 2512/2618 30009KT P6SM SCT110
     FM251700 30014G22KT P6SM SCT110
     FM252330 30006KT P6SM SKC
     FM261400 11006KT P6SM SCT250=



000
FTUS43 KMPX 251100
TAFAXN
TAF
KAXN 251131Z 2512/2612 31012KT P6SM SCT110 BKN250
     FM252300 32005KT P6SM SKC
     FM260900 13008KT P6SM SCT250=



000
FTUS43 KMPX 251100
TAFSTC
TAF
KSTC 251131Z 2512/2612 29010KT P6SM SCT110
     FM251600 30014G20KT P6SM SCT110
     FM252300 31006KT P6SM SKC=



000
FTUS43 KMPX 251100
TAFEAU
TAF
KEAU 251131Z 2512/2612 28008KT P6SM SCT110
     FM251630 29015G22KT P6SM FEW110
     FM260000 29006KT P6SM SKC=



000
FTUS43 KMPX 251100
TAFRWF
TAF
KRWF 251131Z 2512/2612 31010KT P6SM SKC
     FM252300 33006KT P6SM SKC
     FM260100 12006KT P6SM SCT250=



000
FTUS43 KMPX 251100
TAFEAU
TAF
KEAU 251131Z 2512/2612 28008KT P6SM SCT110
     FM251630 29015G22KT P6SM FEW110
     FM260000 29006KT P6SM SKC=



000
FTUS43 KMPX 251100
TAFSTC
TAF
KSTC 251131Z 2512/2612 29010KT P6SM SCT110
     FM251600 30014G20KT P6SM SCT110
     FM252300 31006KT P6SM SKC=



000
FTUS43 KMPX 251100
TAFMSP
TAF
KMSP 251131Z 2512/2618 30009KT P6SM SCT110
     FM251700 30014G22KT P6SM SCT110
     FM252330 30006KT P6SM SKC
     FM261400 11006KT P6SM SCT250=



000
FTUS43 KMPX 251100
TAFAXN
TAF
KAXN 251131Z 2512/2612 31012KT P6SM SCT110 BKN250
     FM252300 32005KT P6SM SKC
     FM260900 13008KT P6SM SCT250=



000
FTUS43 KMPX 250800 AAA
TAFMSP
TAF AMD
KMSP 250845Z 2509/2612 30012KT P6SM SCT110
     FM251700 30014G22KT P6SM FEW100
     FM252300 30007KT P6SM SKC=



000
FTUS43 KMPX 250600 AAA
TAFEAU
TAF AMD
KEAU 250623Z 2506/2606 25005KT 4SM BR SCT002
     FM250700 26007KT 6SM BR FEW002
     FM251000 28008KT P6SM SCT110
     FM251600 29014G22KT P6SM FEW100
     FM260000 29006KT P6SM SKC=



000
FTUS43 KMPX 250500
TAFRWF
TAF
KRWF 250521Z 2506/2606 30010KT P6SM BKN110
     FM252300 33006KT P6SM SKC=



000
FTUS43 KMPX 250500
TAFEAU
TAF
KEAU 250521Z 2506/2606 24006KT 1/4SM FG VV002
      TEMPO 2506/2508 1SM BR SCT002
     FM250800 26007KT 4SM BR FEW002
     FM251000 28008KT P6SM SCT110
     FM251600 29014G22KT P6SM FEW100
     FM260000 29006KT P6SM SKC=



000
FTUS43 KMPX 250500
TAFAXN
TAF
KAXN 250521Z 2506/2606 30012KT P6SM SCT110
     FM252300 32005KT P6SM SKC=



000
FTUS43 KMPX 250500
TAFSTC
TAF
KSTC 250521Z 2506/2606 30012G18KT P6SM SCT110
     FM252300 31006KT P6SM SKC=



000
FTUS43 KMPX 250500
TAFMSP
TAF
KMSP 250521Z 2506/2612 29010KT P6SM SCT110
     FM251700 30014G22KT P6SM FEW100
     FM252300 30007KT P6SM SKC=



000
FTUS43 KMPX 250500 AAB
TAFEAU
TAF AMD
KEAU 250500Z 2505/2524 24006KT 1/4SM FG VV007
      TEMPO 2505/2508 1SM BR SCT009
     FM250800 26007KT 4SM BR SCT009
     FM251000 28008KT P6SM FEW010 SCT120
     FM251600 29014G22KT P6SM FEW100=



000
FTUS43 KMPX 250200 AAA
TAFMSP
TAF AMD
KMSP 250253Z 2503/2606 24005KT P6SM FEW250
     FM250600 28006KT P6SM BKN250
     FM250900 30007KT P6SM SCT250
     FM251700 30014G22KT P6SM FEW250
     FM260000 30009KT P6SM SKC=



000
FTUS43 KMPX 250200 AAA
TAFEAU
TAF AMD
KEAU 250211Z 2502/2524 19004KT 3SM BR FEW002
      TEMPO 2502/2505 1/4SM FG VV002
     FM250500 23005KT 4SM BR BKN005
     FM250700 27006KT P6SM FEW008 BKN250
     FM251600 29013G21KT P6SM FEW250=



000
FTUS43 KMPX 242300
TAFSTC
TAF
KSTC 242339Z 2500/2524 23007KT P6SM BKN250
     FM250200 26008KT P6SM SCT120 BKN250
     FM251500 31013G20KT P6SM SCT100=



000
FTUS43 KMPX 242300
TAFAXN
TAF
KAXN 242339Z 2500/2524 28010KT P6SM SCT120 BKN250
     FM251600 31012KT P6SM SCT100=



000
FTUS43 KMPX 242300
TAFMSP
TAF
KMSP 242339Z 2500/2606 24005KT P6SM OVC250
     FM250300 27006KT P6SM BKN250
     FM251000 30007KT P6SM SCT250
     FM251700 30014G22KT P6SM FEW250=



000
FTUS43 KMPX 242300
TAFRWF
TAF
KRWF 242339Z 2500/2524 28007KT P6SM SCT120 BKN250
     FM250600 31008KT P6SM SCT250=



000
FTUS43 KMPX 242300
TAFEAU
TAF
KEAU 242339Z 2500/2524 19005KT 3SM BR OVC006
     FM250300 23005KT 5SM BR BKN010
     FM250600 27006KT P6SM FEW010 BKN250
     FM251600 29013G21KT P6SM FEW250=



000
FTUS43 KMPX 242200 AAA
TAFEAU
TAF AMD
KEAU 242230Z 2423/2518 19005KT 5SM BR OVC009
     FM250200 23005KT P6SM SCT009 OVC015
     FM250600 28006KT P6SM FEW010
     FM251600 29011G19KT P6SM FEW250=



000
FTUS43 KMPX 242000 AAB
TAFMSP
TAF AMD
KMSP 242059Z 2421/2524 21005KT P6SM BKN250
     FM250300 26006KT P6SM SCT250
     FM251000 30007KT P6SM SCT250
     FM251700 30011G18KT P6SM FEW250=



000
FTUS43 KMPX 241900 AAA
TAFMSP
TAF AMD
KMSP 241918Z 2419/2524 18005KT P6SM BKN023
     FM242000 23008KT P6SM SCT250
     FM250300 26006KT P6SM SCT250
     FM251000 30006KT P6SM SCT250
     FM251700 30011G18KT P6SM FEW250=



000
FTUS43 KMPX 241700
TAFRWF
TAF
KRWF 241728Z 2418/2518 28007KT P6SM BKN250
     FM250600 30008KT P6SM SCT250=



000
FTUS43 KMPX 241700
TAFMSP
TAF
KMSP 241728Z 2418/2524 18005KT P6SM SCT020 BKN250
      TEMPO 2418/2419 BKN020
     FM242000 23008KT P6SM SCT250
     FM250300 26006KT P6SM SCT250
     FM251000 30006KT P6SM SCT250
     FM251700 30011G18KT P6SM FEW250=



000
FTUS43 KMPX 241700
TAFEAU
TAF
KEAU 241728Z 2418/2518 15007KT P6SM SCT007 BKN040
     FM241900 16006KT P6SM BKN015 OVC025
     FM250200 23005KT P6SM SCT009 OVC015
     FM250600 28006KT P6SM FEW010
     FM251600 29011G19KT P6SM FEW250=



000
FTUS43 KMPX 241700
TAFSTC
TAF
KSTC 241728Z 2418/2518 23007KT P6SM FEW250
     FM250200 26007KT P6SM SCT200
     FM251500 31012G19KT P6SM FEW250=



000
FTUS43 KMPX 241700
TAFAXN
TAF
KAXN 241728Z 2418/2518 25009KT P6SM FEW250
     FM250200 30010KT P6SM SCT150=



000
FTUS43 KMPX 241600 AAB
TAFEAU
TAF AMD
KEAU 241639Z 2417/2512 15006KT P6SM SCT007 BKN040
     FM241830 16006KT P6SM BKN015 OVC025
     FM250200 23005KT P6SM SCT009 OVC015
     FM250700 28006KT P6SM FEW010=



000
FTUS43 KMPX 241500 AAA
TAFMSP
TAF AMD
KMSP 241503Z 2415/2518 14008KT P6SM BKN250
     FM241600 16008KT P6SM FEW040 BKN250
     FM241800 21008KT P6SM SCT025 BKN250
     FM250300 26006KT P6SM SCT250
     FM251200 30008KT P6SM SCT250=



000
FTUS43 KMPX 241400 AAA
TAFEAU
TAF AMD
KEAU 241405Z 2414/2512 16006KT 6SM BR BKN005
     FM241700 18006KT P6SM SCT009 BKN015
     FM242100 20009KT P6SM SCT020 BKN030
     FM250000 20005KT P6SM SCT035 BKN250=



000
FTUS43 KMPX 241400 AAA
TAFEAU
TAF AMD
KEAU 241405Z 2414/2512 16006KT 6SM BR BKN005
     FM241700 18006KT P6SM SCT009 BKN015
     FM242100 20009KT P6SM SCT020 BKN030
     FM250000 20005KT P6SM SCT035 BKN250=



000
FTUS43 KMPX 241100
TAFAXN
TAF
KAXN 241122Z 2412/2512 18006KT P6SM BKN200
     FM241700 23009KT P6SM SCT250
     FM242000 26010KT P6SM BKN250
     FM250300 30010KT P6SM BKN120=



000
FTUS43 KMPX 241100
TAFRWF
TAF
KRWF 241122Z 2412/2512 17006KT P6SM BKN250
     FM241700 23007KT P6SM BKN250
     FM242100 27009KT P6SM BKN250
     FM250600 30008KT P6SM SCT250=



000
FTUS43 KMPX 241100
TAFMSP
TAF
KMSP 241122Z 2412/2518 14008KT P6SM BKN250
     FM241600 16008KT P6SM SCT015 BKN025
     FM241900 21008KT P6SM SCT025 BKN250
     FM250300 26006KT P6SM SCT250
     FM251200 30008KT P6SM SCT250=



000
FTUS43 KMPX 241100
TAFEAU
TAF
KEAU 241122Z 2412/2512 17005KT 6SM BR OVC003
     FM241300 16006KT 6SM BR BKN006
     FM241500 18006KT P6SM SCT009 BKN015
     FM242100 20009KT P6SM SCT020 BKN030
     FM250000 20005KT P6SM SCT035 BKN250=



000
FTUS43 KMPX 241100
TAFSTC
TAF
KSTC 241122Z 2412/2512 15006KT P6SM BKN200
     FM241500 19007KT P6SM SCT250
     FM242100 23009KT P6SM BKN250
     FM250200 26007KT P6SM BKN150=



000
FTUS43 KMPX 240900 AAA
TAFEAU
TAF AMD
KEAU 240902Z 2409/2506 16006KT 2SM BR OVC002
     FM241300 16006KT 4SM BR BKN008
     FM241500 18007KT P6SM BKN025
     FM241900 20009KT P6SM SCT035=



000
FTUS43 KMPX 240800 AAB
TAFMSP
TAF AMD
KMSP 240846Z 2409/2512 13006KT P6SM BKN250
     FM241400 16008KT P6SM SCT015 BKN020
     FM241800 20008KT P6SM SCT025 BKN250
     FM250300 26005KT P6SM SCT250=



000
FTUS43 KMPX 240600 AAA
TAFMSP
TAF AMD
KMSP 240656Z 2407/2512 15005KT 6SM BR SCT005
     FM241400 18007KT 6SM BR BKN020
     FM241700 20008KT P6SM SCT030 BKN250
     FM250300 26005KT P6SM SCT250=



000
FTUS43 KMPX 240500
TAFRWF
TAF
KRWF 240525Z 2406/2506 18008KT P6SM SCT250
     FM241700 22007KT P6SM BKN250
     FM242100 27009KT P6SM BKN250=



000
FTUS43 KMPX 240500
TAFMSP
TAF
KMSP 240525Z 2406/2512 15005KT 6SM BR SCT005
      TEMPO 2408/2411 3SM BR BKN004
     FM241400 18007KT 6SM BR BKN020
     FM241700 20008KT P6SM SCT030 BKN250
     FM250300 26005KT P6SM SCT250=



000
FTUS43 KMPX 240500
TAFAXN
TAF
KAXN 240525Z 2406/2506 18008KT P6SM SCT250
     FM241700 23009KT P6SM SCT250
     FM242000 26010KT P6SM BKN250
     FM250200 29010KT P6SM BKN120=



000
FTUS43 KMPX 240500
TAFSTC
TAF
KSTC 240525Z 2406/2506 15004KT P6SM SCT250
     FM241500 19007KT P6SM SCT250
     FM242100 23009KT P6SM BKN250
     FM250200 26007KT P6SM BKN150=



000
FTUS43 KMPX 240500
TAFEAU
TAF
KEAU 240525Z 2406/2506 16006KT 3SM BR OVC003
     FM241000 16003KT 1/4SM FG VV001
     FM241300 16004KT 2SM BR BKN008
     FM241500 18007KT P6SM BKN025
     FM241900 20009KT P6SM SCT035=



000
FTUS43 KMPX 240300 AAA
TAFEAU
TAF AMD
KEAU 240300Z 2403/2424 16004KT 6SM BR OVC009
     FM240600 17003KT 3SM BR OVC008
     FM241000 00000KT 1/4SM FG VV001
     FM241500 18003KT 6SM BR SCT015
     FM241700 20009KT P6SM BKN035=



000
FTUS43 KMPX 240300 AAA
TAFEAU
TAF AMD
KEAU 240300Z 2403/2424 16004KT 6SM BR OVC009
     FM240600 17003KT 3SM BR OVC008
     FM241000 00000KT 1/4SM FG VV001
     FM241500 18003KT 6SM BR SCT015
     FM241700 20009KT P6SM BKN035=



000
FTUS43 KMPX 240200 AAA
TAFMSP
TAF AMD
KMSP 240259Z 2403/2506 13005KT P6SM SKC
     FM240700 15004KT 5SM BR BKN015
     FM241400 17007KT P6SM SCT030
     FM250300 26005KT P6SM SCT250=



000
FTUS43 KMPX 240200 AAA
TAFMSP
TAF AMD
KMSP 240259Z 2403/2506 13005KT P6SM SKC
     FM240700 15004KT 5SM BR BKN015
     FM241400 17007KT P6SM SCT030
     FM250300 26005KT P6SM SCT250=



000
FTUS43 KMPX 232300
TAFSTC
TAF
KSTC 232334Z 2400/2424 17004KT P6SM SKC
     FM241500 19007KT P6SM SCT250
     FM242100 23009KT P6SM BKN250=



000
FTUS43 KMPX 232300
TAFMSP
TAF
KMSP 232334Z 2400/2506 17004KT P6SM SKC
     FM240900 15004KT 5SM BR SCT020
     FM241400 17007KT P6SM SCT035
     FM250300 26005KT P6SM SCT250=



000
FTUS43 KMPX 232300
TAFAXN
TAF
KAXN 232334Z 2400/2424 20007KT P6SM FEW250
     FM241700 23008KT P6SM SCT250
     FM242000 26010KT P6SM BKN250=



000
FTUS43 KMPX 232300
TAFRWF
TAF
KRWF 232334Z 2400/2424 18006KT P6SM FEW250
     FM241700 23007KT P6SM BKN250
     FM242100 27009KT P6SM BKN250=



000
FTUS43 KMPX 232300
TAFEAU
TAF
KEAU 232334Z 2400/2424 18004KT 6SM BR OVC010
     FM240300 20003KT P6SM BKN012
     FM240600 21003KT 3SM BR OVC008
     FM241000 00000KT 1/4SM FG VV001
     FM241500 18003KT 6SM BR SCT015
     FM241700 20009KT P6SM BKN035=



000
FTUS43 KMPX 232000 AAA
TAFMSP
TAF AMD
KMSP 232059Z 2321/2424 23005KT P6SM SKC
     FM240900 18004KT P6SM SKC
     FM241600 20007KT P6SM SKC=



000
FTUS43 KMPX 232000 AAC
TAFEAU
TAF AMD
KEAU 232052Z 2321/2418 18006KT 3SM BR OVC004
     FM240000 17003KT 6SM BR SCT005 BKN012
     FM240200 20003KT P6SM SCT012
     FM240600 21003KT 3SM BR FEW010
     FM241000 00000KT 1/4SM FG VV001
     FM241500 18003KT 6SM BR SKC=



000
FTUS43 KMPX 232000 AAB
TAFEAU
TAF AMD
KEAU 232010Z 2320/2418 18006KT 5SM BR OVC005
     FM232130 21005KT P6SM SCT015
     FM240100 20003KT P6SM SKC
     FM240600 21003KT 3SM BR FEW250
      TEMPO 2408/2412 00000KT 1SM BR OVC010
     FM241500 18003KT 6SM BR SKC=



000
FTUS43 KMPX 231800 AAA
TAFEAU
TAF AMD
KEAU 231815Z 2318/2418 18006KT 5SM BR OVC006
     FM232030 21005KT P6SM BKN015
     FM240100 20003KT P6SM SKC
     FM240600 21003KT 4SM BR FEW250
      TEMPO 2408/2412 00000KT 1SM BR OVC010
     FM241500 18003KT 6SM BR SKC=



000
FTUS43 KMPX 231800 AAA
TAFEAU
TAF AMD
KEAU 231815Z 2318/2418 18006KT 5SM BR OVC006
     FM232030 21005KT P6SM BKN015
     FM240100 20003KT P6SM SKC
     FM240600 21003KT 4SM BR FEW250
      TEMPO 2408/2412 00000KT 1SM BR OVC010
     FM241500 18003KT 6SM BR SKC=



000
FTUS43 KMPX 231700
TAFMSP
TAF
KMSP 231739Z 2318/2424 24005KT P6SM SKC
     FM232000 24008KT P6SM SKC
     FM240900 18004KT P6SM SKC
     FM241600 17007KT P6SM SKC=



000
FTUS43 KMPX 231700
TAFAXN
TAF
KAXN 231739Z 2318/2418 23008KT P6SM SKC
     FM240100 21006KT P6SM SKC
     FM240700 20006KT P6SM SCT250=



000
FTUS43 KMPX 231700
TAFEAU
TAF
KEAU 231739Z 2318/2418 18006KT 5SM BR OVC008
     FM232100 21005KT P6SM BKN015
     FM240100 20003KT P6SM SKC
     FM240600 21003KT 4SM BR FEW250
      TEMPO 2408/2412 00000KT 1SM BR OVC010
     FM241500 18003KT 6SM BR SKC=



000
FTUS43 KMPX 231700
TAFSTC
TAF
KSTC 231739Z 2318/2418 22007KT P6SM SCT012
     FM231830 24008KT P6SM SKC
     FM240100 19005KT P6SM SKC
     FM240800 18004KT 4SM BR FEW200
     FM241400 16004KT P6SM SKC=



000
FTUS43 KMPX 231700
TAFSTC
TAF
KSTC 231739Z 2318/2418 22007KT P6SM SCT012
     FM231830 24008KT P6SM SKC
     FM240100 19005KT P6SM SKC
     FM240800 18004KT 4SM BR FEW200
     FM241400 16004KT P6SM SKC=



000
FTUS43 KMPX 231700
TAFAXN
TAF
KAXN 231739Z 2318/2418 23008KT P6SM SKC
     FM240100 21006KT P6SM SKC
     FM240700 20006KT P6SM SCT250=



000
FTUS43 KMPX 231700
TAFMSP
TAF
KMSP 231739Z 2318/2424 24005KT P6SM SKC
     FM232000 24008KT P6SM SKC
     FM240900 18004KT P6SM SKC
     FM241600 17007KT P6SM SKC=



000
FTUS43 KMPX 231700
TAFRWF
TAF
KRWF 231739Z 2318/2418 26009KT P6SM SKC
     FM240100 20007KT P6SM SKC
     FM240800 17006KT 6SM BR FEW200=



000
FTUS43 KMPX 231700
TAFEAU
TAF
KEAU 231739Z 2318/2418 18006KT 5SM BR OVC008
     FM232100 21005KT P6SM BKN015
     FM240100 20003KT P6SM SKC
     FM240600 21003KT 4SM BR FEW250
      TEMPO 2408/2412 00000KT 1SM BR OVC010
     FM241500 18003KT 6SM BR SKC=



000
FTUS43 KMPX 231700
TAFRWF
TAF
KRWF 231739Z 2318/2418 26009KT P6SM SKC
     FM240100 20007KT P6SM SKC
     FM240800 17006KT 6SM BR FEW200=



000
FTUS43 KMPX 231400 AAA
TAFEAU
TAF AMD
KEAU 231453Z 2315/2412 18005KT 6SM -RA BR SCT006 OVC008
      TEMPO 2315/2316 BKN012
     FM231700 22005KT P6SM BKN015 OVC025
     FM232000 24007KT P6SM SCT030
     FM240100 20003KT P6SM SKC
     FM240600 21004KT 4SM BR FEW250=



000
FTUS43 KMPX 231400 AAA
TAFEAU
TAF AMD
KEAU 231453Z 2315/2412 18005KT 6SM -RA BR SCT006 OVC008
      TEMPO 2315/2316 BKN012
     FM231700 22005KT P6SM BKN015 OVC025
     FM232000 24007KT P6SM SCT030
     FM240100 20003KT P6SM SKC
     FM240600 21004KT 4SM BR FEW250=



000
FTUS43 KMPX 231400 AAA
TAFMSP
TAF AMD
KMSP 231450Z 2315/2418 21004KT P6SM OVC010
     FM231600 24006KT P6SM SCT010 BKN015
     FM231800 24008KT P6SM FEW015
     FM240100 22005KT P6SM SKC
     FM240900 19004KT P6SM FEW250
     FM241500 18006KT P6SM SCT030=



000
FTUS43 KMPX 231400 AAA
TAFMSP
TAF AMD
KMSP 231450Z 2315/2418 21004KT P6SM OVC010
     FM231600 24006KT P6SM SCT010 BKN015
     FM231800 24008KT P6SM FEW015
     FM240100 22005KT P6SM SKC
     FM240900 19004KT P6SM FEW250
     FM241500 18006KT P6SM SCT030=



000
FTUS43 KMPX 231400 AAA
TAFRWF
TAF AMD
KRWF 231442Z 2315/2412 26009KT P6SM SKC
     FM240100 20007KT P6SM SKC
     FM240800 17006KT 6SM BR FEW200=



000
FTUS43 KMPX 231400 AAA
TAFRWF
TAF AMD
KRWF 231442Z 2315/2412 26009KT P6SM SKC
     FM240100 20007KT P6SM SKC
     FM240800 17006KT 6SM BR FEW200=



000
FTUS43 KMPX 231400 AAB
TAFAXN
TAF AMD
KAXN 231441Z 2315/2412 22008KT P6SM SKC
     FM240100 21007KT P6SM SKC
     FM240700 19006KT 6SM BR SCT250=



000
FTUS43 KMPX 231400 AAB
TAFAXN
TAF AMD
KAXN 231441Z 2315/2412 22008KT P6SM SKC
     FM240100 21007KT P6SM SKC
     FM240700 19006KT 6SM BR SCT250=



000
FTUS43 KMPX 231400 AAA
TAFSTC
TAF AMD
KSTC 231440Z 2315/2412 23004KT 1/4SM FG VV002
      TEMPO 2315/2316 3SM BR VV006
     FM231600 24008KT 6SM BR FEW005
     FM231630 24008KT P6SM SKC
     FM240100 19005KT P6SM SKC
     FM240800 18004KT 4SM BR FEW200=



000
FTUS43 KMPX 231400 AAA
TAFSTC
TAF AMD
KSTC 231440Z 2315/2412 23004KT 1/4SM FG VV002
      TEMPO 2315/2316 3SM BR VV006
     FM231600 24008KT 6SM BR FEW005
     FM231630 24008KT P6SM SKC
     FM240100 19005KT P6SM SKC
     FM240800 18004KT 4SM BR FEW200=



000
FTUS43 KMPX 231300 AAA
TAFAXN
TAF AMD
KAXN 231315Z 2313/2412 23009KT P6SM SKC
     FM240100 21008KT P6SM SKC
     FM240700 19006KT 6SM BR SCT250=



000
FTUS43 KMPX 231100
TAFSTC
TAF
KSTC 231124Z 2312/2412 22004KT 4SM BR OVC005
      TEMPO 2312/2314 1SM BR VV003
     FM231500 24008KT P6SM FEW005
     FM231600 24008KT P6SM SKC
     FM240100 19005KT P6SM SKC
     FM240800 18004KT 4SM BR FEW200=



000
FTUS43 KMPX 231100
TAFAXN
TAF
KAXN 231124Z 2312/2412 24006KT 2SM BR BKN005
      TEMPO 2312/2314 1/2SM FG VV002
     FM231500 25010KT P6SM SKC
     FM240100 21008KT P6SM SKC
     FM240700 19006KT 6SM BR SCT250=



000
FTUS43 KMPX 231100
TAFMSP
TAF
KMSP 231124Z 2312/2418 16006KT 6SM BR SCT008 BKN012
      TEMPO 2312/2314 4SM BR BKN008
     FM231500 21007KT P6SM FEW008 BKN015
     FM231700 24008KT P6SM FEW015
     FM240100 22005KT P6SM SKC
     FM240900 19004KT P6SM FEW250
     FM241500 18006KT P6SM SCT030=



000
FTUS43 KMPX 231100
TAFRWF
TAF
KRWF 231124Z 2312/2412 24007KT 2SM BR BKN008
      TEMPO 2312/2314 1/2SM FG VV002
     FM231500 27009KT P6SM SKC
     FM240100 20007KT P6SM SKC
     FM240800 17006KT 6SM BR FEW200=



000
FTUS43 KMPX 231100
TAFEAU
TAF
KEAU 231124Z 2312/2412 18005KT 6SM -RA BR SCT006 OVC012
      TEMPO 2312/2315 2SM BR BKN006
     FM231700 22005KT P6SM BKN015 OVC025
     FM232000 24007KT P6SM SCT030
     FM240100 20003KT P6SM SKC
     FM240600 21004KT 4SM BR FEW250=



000
FTUS43 KMPX 230900 AAA
TAFSTC
TAF AMD
KSTC 230906Z 2309/2406 20006KT 5SM BR BKN005 OVC020
     FM231000 22004KT 2SM BR OVC008
      TEMPO 2310/2313 1/2SM FG VV003
     FM231400 24008KT P6SM SCT010
     FM240100 19005KT P6SM SKC=



000
FTUS43 KMPX 230900 CCA
TAFMSP
TAF COR
KMSP 230903Z 2309/2412 15006KT 5SM BR SCT008 OVC015
      TEMPO 2309/2312 BKN008
     FM231400 24007KT P6SM FEW008 SCT015
     FM231700 25008KT P6SM FEW025
     FM240100 20005KT P6SM SKC=



000
FTUS43 KMPX 230800 AAA
TAFMSP
TAF AMD
KMSP 230859Z 2309/2412 15006KT 5SM BR BKN008 OVC015
     FM231400 24007KT P6SM SCT008 BKN015
     FM231700 25008KT P6SM FEW025
     FM240100 20005KT P6SM SKC=



000
FTUS43 KMPX 230700 AAA
TAFRWF
TAF AMD
KRWF 230742Z 2308/2406 24007KT 4SM BR FEW008 SCT025
      TEMPO 2308/2312 1/2SM FG VV002
     FM231200 24007KT 2SM BR SCT008
     FM231400 27009KT P6SM SKC
     FM240100 20007KT P6SM SKC=



000
FTUS43 KMPX 230700 AAA
TAFAXN
TAF AMD
KAXN 230735Z 2308/2406 24006KT 2SM BR SCT005
      TEMPO 2308/2312 1/2SM FG VV002
     FM231400 25010KT P6SM SKC
     FM240100 21008KT P6SM SKC=



    US Dept of Commerce
    National Oceanic and Atmospheric Administration
    National Weather Service
    1325 East West Highway
    Silver Spring, MD 20910
    Page Author: NWS Internet Services Team
Disclaimer
Information Quality
Credits
Glossary
Privacy Policy
Freedom of Information Act (FOIA)
About Us
Career Opportunities